createdAt,value
2022-10-15T00:01:47.815Z,7.85
2022-10-15T00:04:15.569Z,8.30
2022-10-15T00:06:43.397Z,8.02
2022-10-15T00:09:11.123Z,8.95
2022-10-15T00:11:40.158Z,8.13
2022-10-15T00:14:07.874Z,8.77
2022-10-15T00:16:36.962Z,8.18
2022-10-15T00:19:04.931Z,8.10
2022-10-15T00:21:32.628Z,8.30
2022-10-15T00:24:00.399Z,8.23
2022-10-15T00:26:30.105Z,8.18
2022-10-15T00:29:00.347Z,8.15
2022-10-15T00:31:30.025Z,9.40
2022-10-15T00:34:00.567Z,8.25
2022-10-15T00:36:30.701Z,7.80
2022-10-15T00:38:58.782Z,8.30
2022-10-15T00:41:29.499Z,7.95
2022-10-15T00:43:58.403Z,8.25
2022-10-15T00:46:29.855Z,7.75
2022-10-15T00:51:41.114Z,7.68
2022-10-15T00:54:10.182Z,6.47
2022-10-15T00:56:40.360Z,7.50
2022-10-15T00:59:09.516Z,7.03
2022-10-15T01:01:37.567Z,7.53
2022-10-15T01:04:08.377Z,7.53
2022-10-15T01:06:37.087Z,6.88
2022-10-15T01:09:05.465Z,6.55
2022-10-15T01:11:42.050Z,6.90
2022-10-15T01:14:24.096Z,6.68
2022-10-15T01:16:57.063Z,6.75
2022-10-15T01:19:48.808Z,6.90
2022-10-15T01:22:26.124Z,6.30
2022-10-15T01:25:12.059Z,6.00
2022-10-15T01:27:43.354Z,6.28
2022-10-15T01:30:20.837Z,5.65
2022-10-15T01:32:56.780Z,5.95
2022-10-15T01:35:36.067Z,6.63
2022-10-15T01:38:10.945Z,5.40
2022-10-15T01:40:47.355Z,5.90
2022-10-15T01:43:18.864Z,5.85
2022-10-15T01:45:53.363Z,5.82
2022-10-15T01:48:23.872Z,5.65
2022-10-15T01:50:55.777Z,5.13
2022-10-15T01:53:27.238Z,5.50
2022-10-15T01:55:57.959Z,5.90
2022-10-15T01:58:27.270Z,5.60
2022-10-15T02:00:59.194Z,5.72
2022-10-15T02:03:27.049Z,5.95
2022-10-15T02:06:04.134Z,5.40
2022-10-15T02:08:41.127Z,5.47
2022-10-15T02:11:12.617Z,5.43
2022-10-15T02:13:51.655Z,5.03
2022-10-15T02:16:24.922Z,4.60
2022-10-15T02:19:01.465Z,4.63
2022-10-15T02:21:34.278Z,4.82
2022-10-15T02:24:10.080Z,5.38
2022-10-15T02:26:40.123Z,5.20
2022-10-15T02:29:12.923Z,5.35
2022-10-15T02:31:46.353Z,4.90
2022-10-15T02:34:18.420Z,5.50
2022-10-15T02:36:47.520Z,4.50
2022-10-15T02:39:21.044Z,4.88
2022-10-15T02:41:49.754Z,4.82
2022-10-15T02:44:17.937Z,5.30
2022-10-15T02:46:47.063Z,4.80
2022-10-15T02:49:14.804Z,5.30
2022-10-15T02:51:42.546Z,5.00
2022-10-15T02:54:10.390Z,5.18
2022-10-15T02:56:39.586Z,5.47
2022-10-15T02:59:07.568Z,4.50
2022-10-15T03:01:36.106Z,5.43
2022-10-15T03:04:05.400Z,5.07
2022-10-15T03:06:33.107Z,4.78
2022-10-15T03:09:01.036Z,5.00
2022-10-15T03:11:28.872Z,5.03
2022-10-15T03:13:56.632Z,4.93
2022-10-15T03:16:24.371Z,4.82
2022-10-15T03:18:52.098Z,5.40
2022-10-15T03:21:21.347Z,5.20
2022-10-15T03:23:49.069Z,5.13
2022-10-15T03:26:16.850Z,5.38
2022-10-15T03:28:44.593Z,5.95
2022-10-15T03:31:13.648Z,5.82
2022-10-15T03:33:41.649Z,5.15
2022-10-15T03:36:10.326Z,5.35
2022-10-15T03:38:39.551Z,5.55
2022-10-15T03:41:07.700Z,5.07
2022-10-15T03:43:37.612Z,5.00
2022-10-15T03:46:08.086Z,4.80
2022-10-15T03:48:35.866Z,5.38
2022-10-15T03:51:03.581Z,5.05
2022-10-15T03:53:31.342Z,4.95
2022-10-15T03:56:05.693Z,4.63
2022-10-15T03:58:33.952Z,5.05
2022-10-15T04:01:01.722Z,5.38
2022-10-15T04:03:29.473Z,4.65
2022-10-15T04:05:58.742Z,5.60
2022-10-15T04:08:29.302Z,5.80
2022-10-15T04:10:57.179Z,5.30
2022-10-15T04:13:26.361Z,5.95
2022-10-15T04:15:54.151Z,5.50
2022-10-15T04:18:22.212Z,5.63
2022-10-15T04:20:50.113Z,6.38
2022-10-15T04:23:18.799Z,6.13
2022-10-15T04:25:47.320Z,5.93
2022-10-15T04:28:15.081Z,5.50
2022-10-15T04:30:44.142Z,5.88
2022-10-15T04:33:11.891Z,5.80
2022-10-15T04:35:39.641Z,6.13
2022-10-15T04:38:07.362Z,6.63
2022-10-15T04:40:35.397Z,7.47
2022-10-15T04:43:03.590Z,6.95
2022-10-15T04:45:31.270Z,7.45
2022-10-15T04:48:00.382Z,7.13
2022-10-15T04:50:28.121Z,7.10
2022-10-15T04:52:55.828Z,6.85
2022-10-15T04:55:23.808Z,7.22
2022-10-15T04:57:51.541Z,8.27
2022-10-15T05:00:19.273Z,7.95
2022-10-15T05:02:47.009Z,7.70
2022-10-15T05:05:16.257Z,7.85
2022-10-15T05:07:43.999Z,7.97
2022-10-15T05:10:11.689Z,7.50
2022-10-15T05:12:39.467Z,6.93
2022-10-15T05:15:08.315Z,7.97
2022-10-15T05:17:36.318Z,8.25
2022-10-15T05:20:04.443Z,8.00
2022-10-15T05:22:33.556Z,7.20
2022-10-15T05:25:01.262Z,8.32
2022-10-15T05:27:28.993Z,8.30
2022-10-15T05:29:56.736Z,9.18
2022-10-15T05:32:24.587Z,8.85
2022-10-15T05:34:52.352Z,8.68
2022-10-15T05:37:20.062Z,8.30
2022-10-15T05:39:49.193Z,8.05
2022-10-15T05:42:16.905Z,8.45
2022-10-15T05:44:44.624Z,8.07
2022-10-15T05:47:12.900Z,7.95
2022-10-15T05:49:40.639Z,7.38
2022-10-15T05:52:08.372Z,7.57
2022-10-15T05:54:36.078Z,7.68
2022-10-15T05:57:05.184Z,8.27
2022-10-15T05:59:32.900Z,7.50
2022-10-15T06:02:00.761Z,7.68
2022-10-15T06:04:31.796Z,8.27
2022-10-15T06:07:02.616Z,7.68
2022-10-15T06:09:30.709Z,7.93
2022-10-15T06:11:58.456Z,7.70
2022-10-15T06:14:27.591Z,7.82
2022-10-15T06:16:55.601Z,8.13
2022-10-15T06:19:23.452Z,6.55
2022-10-15T06:21:51.220Z,7.85
2022-10-15T06:24:18.943Z,8.57
2022-10-15T06:26:46.711Z,7.65
2022-10-15T06:29:14.770Z,8.40
2022-10-15T06:31:43.997Z,6.97
2022-10-15T06:34:11.670Z,7.13
2022-10-15T06:36:39.847Z,7.75
2022-10-15T06:39:07.678Z,7.85
2022-10-15T06:41:35.394Z,7.32
2022-10-15T06:44:03.167Z,7.30
2022-10-15T06:46:30.992Z,8.23
2022-10-15T06:49:00.079Z,7.32
2022-10-15T06:51:27.848Z,7.45
2022-10-15T06:53:55.567Z,7.07
2022-10-15T06:56:23.403Z,7.18
2022-10-15T06:58:51.193Z,7.60
2022-10-15T07:01:18.997Z,7.28
2022-10-15T07:03:50.335Z,7.32
2022-10-15T07:06:19.575Z,7.90
2022-10-15T07:08:47.332Z,6.32
2022-10-15T07:11:15.172Z,6.70
2022-10-15T07:13:44.240Z,7.03
2022-10-15T07:16:13.887Z,6.40
2022-10-15T07:18:41.815Z,6.80
2022-10-15T07:23:40.632Z,6.95
2022-10-15T07:26:09.234Z,7.07
2022-10-15T07:28:37.010Z,7.97
2022-10-15T07:31:06.566Z,6.75
2022-10-15T07:33:35.506Z,6.68
2022-10-15T07:36:06.241Z,9.52
2022-10-15T07:38:34.263Z,8.50
2022-10-15T07:41:04.611Z,7.70
2022-10-15T07:43:32.327Z,7.20
2022-10-15T07:46:00.012Z,7.53
2022-10-15T07:48:27.781Z,7.57
2022-10-15T07:50:56.408Z,6.47
2022-10-15T07:53:24.290Z,6.93
2022-10-15T07:55:52.003Z,6.63
2022-10-15T07:58:21.170Z,6.57
2022-10-15T08:00:48.867Z,5.93
2022-10-15T08:03:16.560Z,5.32
2022-10-15T08:05:44.303Z,5.57
2022-10-15T08:08:12.211Z,6.38
2022-10-15T08:10:39.943Z,6.25
2022-10-15T08:13:08.058Z,5.22
2022-10-15T08:15:40.086Z,5.60
2022-10-15T08:18:07.929Z,5.90
2022-10-15T08:20:35.653Z,5.28
2022-10-15T08:23:03.800Z,5.40
2022-10-15T08:25:32.124Z,6.03
2022-10-15T08:28:00.274Z,4.43
2022-10-15T08:30:28.072Z,4.93
2022-10-15T08:32:57.992Z,4.43
2022-10-15T08:35:26.635Z,4.80
2022-10-15T08:37:55.054Z,4.60
2022-10-15T08:40:23.705Z,4.70
2022-10-15T08:42:52.379Z,4.28
2022-10-15T08:45:26.334Z,4.30
2022-10-15T08:47:59.868Z,4.45
2022-10-15T08:50:35.389Z,4.25
2022-10-15T08:53:03.857Z,5.35
2022-10-15T08:55:37.440Z,3.70
2022-10-15T08:58:14.494Z,3.92
2022-10-15T09:00:45.000Z,3.38
2022-10-15T09:03:32.139Z,4.13
2022-10-15T09:06:06.915Z,3.65
2022-10-15T09:08:42.016Z,3.80
2022-10-15T09:11:17.816Z,3.13
2022-10-15T09:13:47.628Z,3.40
2022-10-15T09:16:18.152Z,3.72
2022-10-15T09:18:49.483Z,3.33
2022-10-15T09:21:17.605Z,3.13
2022-10-15T09:23:45.748Z,3.47
2022-10-15T09:26:29.406Z,3.38
2022-10-15T09:29:04.631Z,3.15
2022-10-15T09:31:40.333Z,2.70
2022-10-15T09:34:17.271Z,3.55
2022-10-15T09:36:51.807Z,2.83
2022-10-15T09:39:36.348Z,3.38
2022-10-15T09:42:16.725Z,2.55
2022-10-15T09:44:46.942Z,2.85
2022-10-15T09:47:23.993Z,2.50
2022-10-15T09:49:53.127Z,2.40
2022-10-15T09:52:31.588Z,2.80
2022-10-15T09:55:08.919Z,2.42
2022-10-15T09:57:39.119Z,1.88
2022-10-15T10:00:14.780Z,2.00
2022-10-15T10:02:42.621Z,2.47
2022-10-15T10:05:29.161Z,2.63
2022-10-15T10:08:10.661Z,2.03
2022-10-15T10:10:41.840Z,1.77
2022-10-15T10:13:25.445Z,2.10
2022-10-15T10:15:58.376Z,2.17
2022-10-15T10:18:27.456Z,1.92
2022-10-15T10:20:59.692Z,1.98
2022-10-15T10:23:32.019Z,1.80
2022-10-15T10:26:00.470Z,1.75
2022-10-15T10:28:33.720Z,1.70
2022-10-15T10:31:05.317Z,2.03
2022-10-15T10:33:37.000Z,1.42
2022-10-15T10:38:39.187Z,1.40
2022-10-15T10:41:10.407Z,1.50
2022-10-15T10:43:39.838Z,1.85
2022-10-15T10:46:19.319Z,1.77
2022-10-15T10:48:48.902Z,1.52
2022-10-15T10:51:20.538Z,1.50
2022-10-15T10:53:52.026Z,2.45
2022-10-15T10:56:24.916Z,1.40
2022-10-15T10:58:58.867Z,1.70
2022-10-15T11:01:26.594Z,1.55
2022-10-15T11:03:54.601Z,1.65
2022-10-15T11:06:39.420Z,2.00
2022-10-15T11:09:18.695Z,1.65
2022-10-15T11:11:54.860Z,1.13
2022-10-15T11:14:33.055Z,1.25
2022-10-15T11:17:08.835Z,1.90
2022-10-15T11:22:50.572Z,1.30
2022-10-15T11:25:30.196Z,1.45
2022-10-15T11:28:11.571Z,1.00
2022-10-15T11:30:49.247Z,1.25
2022-10-15T11:33:45.645Z,1.40
2022-10-15T11:36:33.477Z,1.30
2022-10-15T11:39:18.372Z,0.85
2022-10-15T11:41:54.463Z,0.90
2022-10-15T11:44:39.859Z,1.63
2022-10-15T11:47:20.430Z,1.05
2022-10-15T11:50:00.415Z,1.55
2022-10-15T11:52:45.286Z,1.10
2022-10-15T11:55:19.688Z,1.13
2022-10-15T11:57:51.253Z,1.00
2022-10-15T12:00:32.920Z,1.05
2022-10-15T12:03:06.450Z,1.40
2022-10-15T12:05:39.267Z,1.25
2022-10-15T12:08:11.867Z,1.33
2022-10-15T12:10:58.568Z,1.27
2022-10-15T12:13:35.763Z,1.10
2022-10-15T12:16:15.680Z,1.30
2022-10-15T12:18:49.822Z,1.42
2022-10-15T12:21:37.322Z,1.20
2022-10-15T12:24:11.465Z,0.90
2022-10-15T12:26:41.070Z,0.60
2022-10-15T12:29:22.360Z,0.73
2022-10-15T12:31:52.787Z,1.10
2022-10-15T12:34:30.259Z,0.98
2022-10-15T12:37:03.890Z,0.80
2022-10-15T12:39:48.064Z,0.60
2022-10-15T12:42:29.037Z,1.13
2022-10-15T12:47:48.955Z,1.42
2022-10-15T12:50:22.194Z,0.80
2022-10-15T12:53:02.114Z,0.70
2022-10-15T12:55:35.614Z,0.80
2022-10-15T12:58:06.675Z,0.80
2022-10-15T13:00:40.127Z,0.63
2022-10-15T13:03:25.100Z,0.80
2022-10-15T13:05:55.259Z,1.02
2022-10-15T13:08:25.562Z,0.80
2022-10-15T13:10:56.049Z,0.77
2022-10-15T13:13:28.098Z,0.85
2022-10-15T13:15:59.480Z,0.80
2022-10-15T13:18:29.679Z,0.50
2022-10-15T13:20:57.749Z,0.90
2022-10-15T13:23:30.453Z,0.80
2022-10-15T13:26:30.062Z,1.10
2022-10-15T13:29:00.046Z,1.05
2022-10-15T13:31:31.153Z,0.95
2022-10-15T13:34:02.208Z,0.95
2022-10-15T13:36:33.649Z,0.98
2022-10-15T13:39:05.655Z,1.20
2022-10-15T13:41:35.954Z,1.10
2022-10-15T13:44:05.664Z,1.75
2022-10-15T13:46:37.187Z,1.52
2022-10-15T13:49:12.120Z,1.77
2022-10-15T13:51:44.461Z,2.25
2022-10-15T13:54:16.474Z,1.95
2022-10-15T13:56:49.460Z,1.67
2022-10-15T13:59:21.156Z,2.13
2022-10-15T14:01:50.916Z,1.77
2022-10-15T14:04:20.956Z,1.70
2022-10-15T14:06:57.092Z,1.70
2022-10-15T14:09:29.087Z,1.40
2022-10-15T14:12:00.649Z,1.73
2022-10-15T14:14:34.883Z,1.65
2022-10-15T14:17:05.564Z,1.23
2022-10-15T14:19:35.777Z,0.93
2022-10-15T14:22:03.787Z,0.57
2022-10-15T14:24:35.344Z,0.80
2022-10-15T14:27:06.440Z,0.85
2022-10-15T14:29:42.848Z,0.80
2022-10-15T14:32:26.185Z,0.88
2022-10-15T14:34:55.788Z,0.65
2022-10-15T14:37:41.291Z,0.50
2022-10-15T14:40:19.254Z,0.68
2022-10-15T14:42:49.446Z,0.50
2022-10-15T14:45:27.665Z,0.57
2022-10-15T14:47:57.986Z,0.70
2022-10-15T14:50:31.591Z,0.50
2022-10-15T14:53:00.651Z,0.45
2022-10-15T14:55:33.170Z,0.68
2022-10-15T14:58:03.299Z,0.47
2022-10-15T15:00:34.426Z,0.43
2022-10-15T15:03:05.706Z,0.52
2022-10-15T15:05:45.575Z,0.60
2022-10-15T15:08:14.062Z,0.50
2022-10-15T15:10:42.321Z,0.70
2022-10-15T15:13:12.716Z,0.60
2022-10-15T15:15:42.660Z,0.38
2022-10-15T15:18:11.342Z,0.50
2022-10-15T15:20:39.730Z,0.60
2022-10-15T15:23:07.857Z,0.85
2022-10-15T15:25:37.286Z,0.73
2022-10-15T15:28:07.468Z,0.57
2022-10-15T15:30:35.737Z,0.80
2022-10-15T15:33:04.847Z,0.32
2022-10-15T15:35:37.895Z,0.47
2022-10-15T15:38:07.912Z,0.50
2022-10-15T15:40:35.837Z,1.13
2022-10-15T15:43:03.556Z,0.63
2022-10-15T15:45:31.414Z,0.90
2022-10-15T15:48:03.479Z,0.80
2022-10-15T15:50:32.850Z,0.68
2022-10-15T15:53:00.576Z,0.60
2022-10-15T15:55:28.427Z,0.93
2022-10-15T15:57:56.254Z,0.80
2022-10-15T16:00:24.058Z,1.35
2022-10-15T16:02:54.127Z,0.90
2022-10-15T16:05:25.647Z,1.02
2022-10-15T16:07:54.789Z,0.82
2022-10-15T16:10:22.668Z,1.08
2022-10-15T16:12:50.492Z,1.60
2022-10-15T16:15:18.370Z,0.95
2022-10-15T16:17:46.102Z,1.08
2022-10-15T16:20:13.912Z,1.00
2022-10-15T16:22:42.694Z,1.15
2022-10-15T16:25:11.993Z,0.90
2022-10-15T16:27:40.005Z,0.90
2022-10-15T16:30:08.620Z,1.13
2022-10-15T16:32:36.363Z,0.70
2022-10-15T16:35:04.340Z,0.90
2022-10-15T16:37:32.067Z,0.90
2022-10-15T16:40:00.026Z,0.70
2022-10-15T16:42:29.539Z,0.85
2022-10-15T16:44:57.666Z,1.33
2022-10-15T16:47:25.673Z,0.88
2022-10-15T16:49:55.152Z,0.93
2022-10-15T16:52:23.485Z,1.33
2022-10-15T16:54:51.469Z,1.17
2022-10-15T16:57:19.252Z,0.98
2022-10-15T16:59:48.342Z,1.20
2022-10-15T17:02:16.161Z,1.15
2022-10-15T17:04:43.874Z,0.90
2022-10-15T17:07:11.633Z,0.90
2022-10-15T17:09:39.645Z,1.00
2022-10-15T17:12:07.573Z,1.58
2022-10-15T17:14:35.268Z,1.10
2022-10-15T17:17:04.424Z,1.00
2022-10-15T17:19:34.168Z,1.00
2022-10-15T17:22:02.228Z,1.10
2022-10-15T17:24:30.027Z,1.15
2022-10-15T17:26:58.869Z,1.17
2022-10-15T17:29:30.584Z,1.33
2022-10-15T17:32:02.653Z,1.05
2022-10-15T17:34:31.800Z,1.50
2022-10-15T17:36:59.569Z,1.30
2022-10-15T17:39:27.425Z,1.30
2022-10-15T17:41:55.845Z,1.50
2022-10-15T17:44:23.616Z,1.50
2022-10-15T17:46:52.738Z,1.67
2022-10-15T17:49:20.770Z,1.15
2022-10-15T17:51:49.901Z,1.30
2022-10-15T17:54:17.633Z,1.48
2022-10-15T17:56:45.380Z,1.50
2022-10-15T17:59:13.813Z,1.52
2022-10-15T18:01:57.838Z,1.48
2022-10-15T18:04:26.312Z,1.20
2022-10-15T18:06:55.553Z,1.48
2022-10-15T18:09:23.333Z,1.90
2022-10-15T18:11:51.315Z,1.45
2022-10-15T18:16:51.833Z,1.52
2022-10-15T18:19:19.762Z,1.50
2022-10-15T18:21:49.494Z,1.35
2022-10-15T18:24:22.146Z,1.70
2022-10-15T18:26:50.517Z,1.55
2022-10-15T18:29:18.377Z,1.27
2022-10-15T18:31:46.746Z,1.88
2022-10-15T18:34:14.592Z,1.70
2022-10-15T18:36:43.848Z,1.73
2022-10-15T18:39:11.988Z,1.55
2022-10-15T18:41:41.536Z,1.60
2022-10-15T18:44:14.743Z,1.50
2022-10-15T18:46:44.955Z,1.73
2022-10-15T18:49:13.866Z,1.83
2022-10-15T18:51:41.878Z,1.90
2022-10-15T18:54:10.970Z,1.75
2022-10-15T18:56:38.909Z,1.80
2022-10-15T18:59:08.147Z,1.90
2022-10-15T19:01:38.874Z,1.75
2022-10-15T19:04:08.706Z,1.70
2022-10-15T19:06:38.894Z,2.10
2022-10-15T19:09:10.021Z,1.50
2022-10-15T19:11:38.583Z,1.65
2022-10-15T19:14:06.840Z,2.00
2022-10-15T19:16:36.769Z,1.77
2022-10-15T19:19:06.199Z,1.45
2022-10-15T19:21:34.128Z,1.52
2022-10-15T19:24:01.896Z,1.70
2022-10-15T19:26:29.827Z,1.92
2022-10-15T19:28:58.128Z,1.52
2022-10-15T19:31:28.481Z,2.03
2022-10-15T19:33:59.026Z,1.85
2022-10-15T19:36:29.042Z,1.50
2022-10-15T19:38:57.006Z,1.80
2022-10-15T19:41:24.779Z,1.67
2022-10-15T19:43:52.510Z,1.52
2022-10-15T19:46:20.358Z,1.60
2022-10-15T19:48:48.111Z,1.98
2022-10-15T19:51:17.286Z,1.42
2022-10-15T19:53:45.051Z,2.20
2022-10-15T19:56:13.206Z,1.70
2022-10-15T19:58:40.999Z,2.08
2022-10-15T20:01:09.079Z,1.52
2022-10-15T20:03:36.901Z,1.75
2022-10-15T20:06:07.005Z,1.60
2022-10-15T20:08:37.082Z,2.78
2022-10-15T20:11:06.500Z,3.05
2022-10-15T20:13:34.592Z,1.80
2022-10-15T20:16:05.344Z,1.75
2022-10-15T20:18:33.206Z,1.83
2022-10-15T20:21:01.156Z,1.70
2022-10-15T20:23:29.046Z,1.85
2022-10-15T20:25:58.160Z,2.67
2022-10-15T20:28:25.951Z,1.58
2022-10-15T20:33:28.170Z,2.38
2022-10-15T20:35:55.891Z,1.95
2022-10-15T20:38:23.641Z,1.90
2022-10-15T20:40:51.385Z,1.90
2022-10-15T20:43:21.959Z,1.80
2022-10-15T20:45:49.727Z,2.10
2022-10-15T20:48:21.164Z,1.95
2022-10-15T20:50:50.721Z,2.13
2022-10-15T20:53:19.708Z,2.88
2022-10-15T20:55:47.551Z,1.95
2022-10-15T21:00:49.669Z,2.05
2022-10-15T21:03:17.600Z,2.15
2022-10-15T21:05:45.443Z,1.70
2022-10-15T21:08:13.353Z,2.00
2022-10-15T21:10:41.036Z,2.10
2022-10-15T21:13:08.894Z,1.88
2022-10-15T21:15:36.601Z,2.10
2022-10-15T21:18:05.748Z,1.88
2022-10-15T21:20:33.480Z,2.25
2022-10-15T21:23:01.196Z,2.45
2022-10-15T21:25:28.981Z,2.42
2022-10-15T21:27:56.803Z,2.22
2022-10-15T21:30:24.659Z,2.10
2022-10-15T21:32:52.399Z,2.20
2022-10-15T21:35:21.520Z,2.10
2022-10-15T21:37:49.314Z,2.15
2022-10-15T21:40:17.668Z,2.08
2022-10-15T21:42:45.456Z,2.03
2022-10-15T21:45:13.169Z,2.30
2022-10-15T21:47:41.115Z,2.10
2022-10-15T21:50:09.400Z,2.45
2022-10-15T21:52:38.611Z,2.20
2022-10-15T21:55:07.507Z,2.45
2022-10-15T21:57:35.275Z,2.03
2022-10-15T22:00:03.065Z,2.53
2022-10-15T22:02:30.804Z,1.85
2022-10-15T22:04:58.535Z,2.40
2022-10-15T22:07:26.582Z,1.80
2022-10-15T22:09:56.115Z,2.03
2022-10-15T22:12:24.181Z,2.08
2022-10-15T22:14:52.187Z,1.85
2022-10-15T22:17:20.832Z,2.00
2022-10-15T22:19:48.664Z,1.77
2022-10-15T22:22:16.438Z,2.05
2022-10-15T22:24:44.174Z,1.67
2022-10-15T22:27:13.915Z,1.90
2022-10-15T22:29:42.219Z,1.70
2022-10-15T22:32:09.995Z,1.80
2022-10-15T22:34:37.893Z,1.77
2022-10-15T22:37:05.612Z,1.90
2022-10-15T22:39:33.360Z,2.03
2022-10-15T22:42:01.368Z,1.85
2022-10-15T22:44:30.574Z,2.00
2022-10-15T22:46:58.427Z,1.88
2022-10-15T22:49:26.838Z,1.98
2022-10-15T22:51:54.573Z,1.80
2022-10-15T22:54:23.277Z,1.85
2022-10-15T22:56:51.658Z,1.80
2022-10-15T22:59:20.041Z,2.00
2022-10-15T23:01:49.198Z,2.42
2022-10-15T23:04:17.750Z,1.83
2022-10-15T23:06:45.476Z,1.88
2022-10-15T23:09:17.981Z,1.95
2022-10-15T23:11:46.534Z,2.10
2022-10-15T23:14:16.638Z,1.70
2022-10-15T23:16:46.269Z,2.17
2022-10-15T23:19:17.395Z,2.00
2022-10-15T23:21:46.792Z,1.98
2022-10-15T23:24:15.951Z,1.80
2022-10-15T23:26:44.090Z,2.03
2022-10-15T23:29:15.865Z,1.70
2022-10-15T23:31:43.912Z,1.80
2022-10-15T23:34:16.810Z,2.53
2022-10-15T23:36:44.963Z,1.60
2022-10-15T23:39:15.223Z,1.73
2022-10-15T23:41:43.498Z,2.50
2022-10-15T23:44:11.305Z,1.90
2022-10-15T23:46:39.457Z,1.92
2022-10-15T23:49:07.237Z,1.92
2022-10-15T23:51:36.952Z,2.08
2022-10-15T23:54:10.872Z,1.80
2022-10-15T23:56:38.793Z,1.70
2022-10-15T23:59:06.487Z,1.77
